Hauptseite
METAR-TAF:

METAR-TAF

Flughäfen :

Teheran, Iran

Flughafen Teheran-Mehrabad

Breite: 35-41N, Länge: 051-21E, Höhe: 1204 m

Beobachtung

Neuester Wetterbericht von vor 27 Minuten, um 22:00 UTC
Wind 4 kt aus Nord/Nordwest
Temperatur 27°C
Luftfeuchtigkeit 24%
Luftdruck 1011 hPa
Sichtweite 10 km oder mehr
keine Wolken unter 1500 m und keine Kumulonimbus oder Gewitterwolken

METAR: OIII 232200Z 34004KT CAVOK 27/05 Q1010 A2985

Zeit: 02:57 (22:27 UTC)

Prognose

Neuester Wetterbericht von vor 4 Stunden und 57 Minuten, um 17:30 UTC
Gültige Prognose vom 23 um 18 UTC bis 24 um 24 UTC
Wind 8 kt aus Südost
Sichtweite 10 km oder mehr
keine Wolken unter 1500 m und keine Kumulonimbus oder Gewitterwolken

TAF: OIII 231730Z 2318/2424 14004MPS CAVOK

Wetterbeobachtungen und Prognosen von mehr als 4000 Flughäfen (METAR und TAF Bericht).

Die verfügbaren Stationen werden durch gelbe und rote Markierungen auf der Karte dargestellt.

Führen Sie die Maus auf sie, um den Namen der Station zu sehen.

Darauf klicken, um die Beobachtung von Wetterbeobachtungen und Prognosen zu sehen.

Um die Karte zu ändern : klicken Sie auf den grünen Tasten mit einem schwarzen Kreuz Zum Vergrößern, auf den grünen Button mit einem Gedankenstrich zu verkleinern, oder auf die grünen Pfeile für benachbarte Karten.


METAR-TAF: